createdAt,value
2022-12-04T00:01:57.140Z,2.80
2022-12-04T00:04:43.830Z,2.70
2022-12-04T00:07:30.879Z,2.70
2022-12-04T00:10:18.031Z,2.70
2022-12-04T00:13:04.688Z,2.70
2022-12-04T00:15:51.279Z,2.70
2022-12-04T00:18:39.025Z,2.80
2022-12-04T00:21:26.711Z,2.80
2022-12-04T00:24:13.476Z,2.90
2022-12-04T00:27:00.187Z,2.80
2022-12-04T00:29:46.675Z,2.90
2022-12-04T00:32:32.999Z,2.80
2022-12-04T00:35:20.685Z,2.90
2022-12-04T00:38:07.100Z,2.80
2022-12-04T00:40:54.455Z,2.90
2022-12-04T00:43:41.094Z,2.90
2022-12-04T00:46:28.409Z,2.90
2022-12-04T00:49:14.985Z,2.90
2022-12-04T00:52:02.623Z,2.90
2022-12-04T00:54:49.132Z,2.90
2022-12-04T00:57:35.954Z,2.90
2022-12-04T01:00:22.548Z,2.90
2022-12-04T01:03:09.799Z,2.90
2022-12-04T01:05:56.621Z,2.90
2022-12-04T01:08:44.224Z,2.90
2022-12-04T01:11:31.392Z,2.90
2022-12-04T01:14:18.246Z,2.90
2022-12-04T01:17:04.562Z,2.90
2022-12-04T01:19:51.424Z,2.90
2022-12-04T01:22:38.058Z,2.80
2022-12-04T01:25:25.792Z,2.80
2022-12-04T01:28:12.131Z,2.90
2022-12-04T01:31:02.776Z,2.80
2022-12-04T01:33:50.388Z,2.80
2022-12-04T01:36:37.041Z,2.80
2022-12-04T01:39:23.569Z,2.70
2022-12-04T01:42:15.614Z,2.70
2022-12-04T01:45:35.574Z,2.70
2022-12-04T01:48:28.258Z,2.70
2022-12-04T01:51:18.570Z,2.70
2022-12-04T01:54:08.351Z,2.80
2022-12-04T01:57:00.459Z,2.70
2022-12-04T01:59:53.588Z,2.70
2022-12-04T02:02:43.647Z,2.70
2022-12-04T02:05:30.506Z,2.70
2022-12-04T02:08:17.697Z,2.70
2022-12-04T02:11:12.588Z,2.80
2022-12-04T02:14:07.573Z,2.80
2022-12-04T02:17:02.666Z,2.70
2022-12-04T02:20:09.639Z,2.70
2022-12-04T02:23:20.797Z,2.80
2022-12-04T02:26:26.286Z,2.70
2022-12-04T02:29:24.558Z,2.80
2022-12-04T02:32:20.254Z,2.80
2022-12-04T02:35:12.348Z,2.80
2022-12-04T02:38:07.421Z,2.80
2022-12-04T02:40:59.998Z,2.80
2022-12-04T02:43:49.960Z,2.80
2022-12-04T02:46:40.805Z,2.80
2022-12-04T02:49:33.432Z,2.90
2022-12-04T02:52:25.550Z,2.80
2022-12-04T02:55:17.167Z,2.90
2022-12-04T02:58:08.268Z,2.90
2022-12-04T03:00:57.775Z,2.90
2022-12-04T03:03:50.271Z,2.90
2022-12-04T03:06:40.783Z,3.00
2022-12-04T03:09:32.719Z,2.90
2022-12-04T03:12:25.212Z,2.90
2022-12-04T03:15:16.620Z,2.90
2022-12-04T03:18:07.115Z,2.90
2022-12-04T03:21:00.357Z,3.00
2022-12-04T03:23:51.233Z,3.00
2022-12-04T03:26:42.749Z,2.90
2022-12-04T03:29:36.242Z,2.90
2022-12-04T03:32:28.415Z,3.00
2022-12-04T03:35:19.978Z,3.00
2022-12-04T03:38:13.382Z,3.00
2022-12-04T03:41:04.304Z,3.00
2022-12-04T03:43:54.742Z,3.00
2022-12-04T03:46:49.656Z,3.00
2022-12-04T03:49:43.104Z,2.90
2022-12-04T03:52:34.301Z,2.90
2022-12-04T03:55:27.204Z,3.00
2022-12-04T03:58:20.802Z,3.10
2022-12-04T04:01:11.244Z,3.10
2022-12-04T04:04:00.102Z,3.20
2022-12-04T04:06:52.146Z,3.10
2022-12-04T04:09:42.497Z,3.10
2022-12-04T04:12:36.536Z,3.10
2022-12-04T04:15:40.673Z,3.10
2022-12-04T04:18:46.921Z,3.20
2022-12-04T04:22:08.811Z,3.20
2022-12-04T04:24:59.540Z,3.20
2022-12-04T04:27:54.677Z,3.20
2022-12-04T04:30:41.519Z,3.10
2022-12-04T04:33:30.569Z,3.00
2022-12-04T04:36:24.056Z,3.10
2022-12-04T04:39:17.634Z,3.10
2022-12-04T04:42:07.760Z,3.10
2022-12-04T04:45:01.099Z,3.00
2022-12-04T04:47:52.994Z,3.00
2022-12-04T04:50:40.726Z,3.00
2022-12-04T04:53:31.659Z,3.00
2022-12-04T04:56:19.249Z,2.90
2022-12-04T04:59:05.704Z,2.90
2022-12-04T05:01:53.645Z,2.90
2022-12-04T05:04:40.124Z,2.90
2022-12-04T05:07:26.640Z,3.00
2022-12-04T05:10:14.068Z,2.90
2022-12-04T05:13:00.830Z,3.00
2022-12-04T05:15:57.133Z,3.00
2022-12-04T05:19:05.484Z,3.00
2022-12-04T05:21:51.089Z,3.10
2022-12-04T05:24:37.609Z,3.10
2022-12-04T05:27:25.711Z,3.20
2022-12-04T05:30:13.285Z,3.10
2022-12-04T05:32:59.680Z,3.10
2022-12-04T05:35:56.531Z,3.00
2022-12-04T05:38:43.258Z,3.10
2022-12-04T05:41:29.944Z,3.10
2022-12-04T05:44:16.107Z,3.10
2022-12-04T05:47:02.700Z,3.00
2022-12-04T05:49:49.311Z,3.10
2022-12-04T05:52:36.980Z,3.10
2022-12-04T05:55:23.431Z,3.20
2022-12-04T05:58:09.865Z,3.10
2022-12-04T06:00:56.550Z,3.20
2022-12-04T06:03:43.515Z,3.20
2022-12-04T06:06:30.218Z,3.20
2022-12-04T06:09:17.795Z,3.20
2022-12-04T06:12:04.644Z,3.30
2022-12-04T06:14:51.048Z,3.30
2022-12-04T06:17:37.227Z,3.30
2022-12-04T06:20:23.826Z,3.20
2022-12-04T06:23:10.387Z,3.20
2022-12-04T06:26:02.166Z,3.10
2022-12-04T06:28:54.057Z,3.00
2022-12-04T06:31:41.205Z,3.10
2022-12-04T06:34:28.239Z,3.10
2022-12-04T06:37:14.728Z,3.10
2022-12-04T06:40:01.003Z,3.10
2022-12-04T06:42:48.811Z,3.10
2022-12-04T06:45:35.507Z,3.10
2022-12-04T06:48:21.769Z,3.10
2022-12-04T06:51:09.882Z,3.30
2022-12-04T06:53:57.302Z,3.30
2022-12-04T06:56:44.011Z,3.40
2022-12-04T06:59:33.580Z,3.50
2022-12-04T07:02:19.807Z,3.50
2022-12-04T07:05:07.631Z,3.50
2022-12-04T07:07:54.064Z,3.50
2022-12-04T07:10:41.131Z,3.60
2022-12-04T07:13:27.846Z,3.40
2022-12-04T07:16:18.670Z,3.40
2022-12-04T07:19:05.455Z,3.40
2022-12-04T07:21:51.832Z,3.50
2022-12-04T07:24:38.414Z,3.50
2022-12-04T07:27:24.876Z,3.50
2022-12-04T07:30:15.693Z,3.50
2022-12-04T07:33:03.619Z,3.40
2022-12-04T07:35:56.561Z,3.40
2022-12-04T07:38:44.032Z,3.40
2022-12-04T07:41:30.732Z,3.40
2022-12-04T07:44:25.234Z,3.40
2022-12-04T07:47:11.556Z,3.40
2022-12-04T07:49:59.238Z,3.50
2022-12-04T07:52:45.579Z,3.50
2022-12-04T07:55:31.974Z,3.60
2022-12-04T07:58:18.533Z,3.60
2022-12-04T08:01:10.794Z,3.70
2022-12-04T08:03:59.143Z,3.60
2022-12-04T08:06:46.849Z,3.70
2022-12-04T08:09:33.282Z,3.70
2022-12-04T08:12:20.052Z,3.70
2022-12-04T08:15:07.386Z,3.70
2022-12-04T08:17:53.679Z,3.80
2022-12-04T08:20:40.133Z,3.80
2022-12-04T08:23:27.855Z,3.70
2022-12-04T08:26:14.839Z,3.70
2022-12-04T08:29:02.390Z,3.70
2022-12-04T08:31:49.232Z,3.70
2022-12-04T08:34:35.683Z,3.80
2022-12-04T08:37:22.344Z,3.70
2022-12-04T08:40:12.475Z,3.70
2022-12-04T08:42:58.837Z,3.70
2022-12-04T08:45:45.151Z,3.60
2022-12-04T08:48:32.633Z,3.70
2022-12-04T08:51:21.431Z,3.80
2022-12-04T08:54:09.904Z,3.90
2022-12-04T08:56:57.720Z,3.80
2022-12-04T08:59:44.469Z,3.70
2022-12-04T09:02:30.894Z,3.80
2022-12-04T09:05:18.123Z,3.90
2022-12-04T09:08:04.674Z,3.80
2022-12-04T09:10:51.473Z,3.90
2022-12-04T09:13:40.023Z,3.70
2022-12-04T09:16:27.066Z,3.70
2022-12-04T09:19:14.025Z,3.70
2022-12-04T09:22:00.716Z,3.70
2022-12-04T09:24:47.014Z,3.70
2022-12-04T09:27:38.021Z,3.70
2022-12-04T09:30:26.021Z,3.60
2022-12-04T09:33:13.012Z,3.60
2022-12-04T09:36:00.308Z,3.60
2022-12-04T09:38:48.650Z,3.70
2022-12-04T09:41:55.127Z,3.80
2022-12-04T09:44:46.736Z,3.90
2022-12-04T09:47:38.670Z,3.90
2022-12-04T09:50:29.647Z,3.90
2022-12-04T09:53:20.299Z,3.90
2022-12-04T09:56:11.102Z,3.80
2022-12-04T09:59:05.433Z,3.80
2022-12-04T10:01:57.337Z,3.70
2022-12-04T10:04:45.376Z,3.70
2022-12-04T10:07:36.434Z,3.60
2022-12-04T10:10:36.239Z,3.80
2022-12-04T10:13:43.760Z,3.70
2022-12-04T10:16:39.261Z,3.80
2022-12-04T10:19:33.085Z,3.90
2022-12-04T10:22:26.733Z,4.00
2022-12-04T10:25:17.558Z,4.00
2022-12-04T10:28:11.219Z,4.00
2022-12-04T10:30:59.068Z,3.90
2022-12-04T10:33:48.377Z,3.90
2022-12-04T10:36:44.560Z,3.90
2022-12-04T10:39:37.601Z,3.90
2022-12-04T10:42:32.357Z,3.90
2022-12-04T10:45:18.682Z,3.80
2022-12-04T10:48:07.986Z,3.90
2022-12-04T10:50:54.903Z,3.90
2022-12-04T10:53:41.590Z,3.90
2022-12-04T10:56:29.580Z,3.80
2022-12-04T10:59:16.762Z,3.70
2022-12-04T11:02:07.475Z,3.80
2022-12-04T11:04:57.879Z,3.90
2022-12-04T11:07:48.379Z,4.00
2022-12-04T11:10:37.568Z,4.00
2022-12-04T11:13:26.082Z,4.00
2022-12-04T11:16:33.977Z,4.20
2022-12-04T11:19:24.431Z,4.30
2022-12-04T11:22:15.658Z,4.20
2022-12-04T11:25:02.747Z,4.10
2022-12-04T11:27:52.748Z,4.00
2022-12-04T11:30:40.864Z,3.90
2022-12-04T11:33:33.967Z,3.90
2022-12-04T11:36:23.935Z,4.00
2022-12-04T11:39:19.953Z,4.00
2022-12-04T11:42:16.509Z,4.10
2022-12-04T11:45:16.800Z,4.10
2022-12-04T11:48:13.679Z,4.10
2022-12-04T11:51:12.026Z,4.20
2022-12-04T11:54:04.841Z,4.40
2022-12-04T11:57:04.507Z,4.30
2022-12-04T12:00:03.683Z,4.20
2022-12-04T12:03:14.486Z,4.10
2022-12-04T12:06:30.190Z,4.30
2022-12-04T12:09:27.143Z,4.30
2022-12-04T12:12:20.834Z,4.10
2022-12-04T12:15:17.425Z,4.30
2022-12-04T12:18:22.830Z,4.40
2022-12-04T12:21:13.820Z,4.50
2022-12-04T12:24:28.985Z,4.60
2022-12-04T12:27:35.812Z,4.70
2022-12-04T12:30:24.598Z,4.60
2022-12-04T12:33:18.313Z,4.70
2022-12-04T12:36:09.219Z,4.80
2022-12-04T12:38:58.796Z,4.80
2022-12-04T12:41:49.594Z,4.90
2022-12-04T12:44:45.976Z,4.90
2022-12-04T12:47:40.619Z,4.90
2022-12-04T12:50:36.347Z,4.90
2022-12-04T12:53:27.885Z,4.70
2022-12-04T12:56:15.015Z,4.50
2022-12-04T12:59:05.165Z,4.60
2022-12-04T13:02:00.660Z,4.70
2022-12-04T13:04:51.259Z,4.80
2022-12-04T13:07:48.877Z,4.90
2022-12-04T13:10:41.486Z,5.00
2022-12-04T13:13:30.997Z,5.00
2022-12-04T13:16:22.320Z,5.00
2022-12-04T13:19:17.444Z,5.10
2022-12-04T13:22:17.476Z,5.20
2022-12-04T13:25:31.418Z,5.20
2022-12-04T13:28:37.447Z,5.10
2022-12-04T13:31:33.127Z,5.10
2022-12-04T13:34:40.138Z,5.00
2022-12-04T13:37:45.843Z,5.10
2022-12-04T13:40:37.489Z,5.20
2022-12-04T13:43:33.197Z,5.20
2022-12-04T13:46:29.431Z,5.00
2022-12-04T13:49:27.137Z,5.00
2022-12-04T13:52:24.152Z,5.10
2022-12-04T13:55:25.568Z,5.00
2022-12-04T13:58:29.385Z,5.00
2022-12-04T14:01:26.311Z,5.00
2022-12-04T14:04:25.092Z,5.10
2022-12-04T14:07:26.049Z,4.80
2022-12-04T14:10:28.643Z,4.90
2022-12-04T14:13:20.835Z,5.00
2022-12-04T14:16:19.144Z,5.00
2022-12-04T14:19:07.260Z,5.00
2022-12-04T14:21:54.231Z,4.70
2022-12-04T14:24:40.884Z,4.70
2022-12-04T14:27:34.874Z,4.80
2022-12-04T14:30:24.705Z,4.90
2022-12-04T14:33:18.790Z,4.90
2022-12-04T14:36:09.586Z,4.90
2022-12-04T14:39:13.471Z,4.80
2022-12-04T14:42:08.059Z,4.80
2022-12-04T14:44:58.152Z,4.80
2022-12-04T14:47:51.622Z,4.80
2022-12-04T14:50:46.999Z,4.90
2022-12-04T14:53:41.031Z,5.00
2022-12-04T14:56:38.728Z,5.00
2022-12-04T14:59:30.861Z,5.00
2022-12-04T15:02:20.541Z,5.00
2022-12-04T15:05:11.463Z,5.10
2022-12-04T15:08:03.052Z,5.00
2022-12-04T15:11:09.398Z,5.10
2022-12-04T15:14:06.244Z,5.00
2022-12-04T15:17:03.464Z,5.00
2022-12-04T15:19:50.299Z,5.00
2022-12-04T15:22:36.959Z,5.00
2022-12-04T15:25:28.681Z,5.00
2022-12-04T15:28:19.754Z,4.90
2022-12-04T15:31:11.219Z,4.90
2022-12-04T15:34:00.844Z,4.90
2022-12-04T15:36:49.943Z,4.90
2022-12-04T15:39:38.853Z,4.80
2022-12-04T15:42:30.146Z,4.90
2022-12-04T15:45:34.210Z,4.80
2022-12-04T15:48:28.905Z,4.50
2022-12-04T15:51:17.920Z,4.30
2022-12-04T15:54:05.090Z,4.20
2022-12-04T15:57:03.211Z,4.20
2022-12-04T15:59:53.621Z,4.10
2022-12-04T16:02:43.635Z,4.10
2022-12-04T16:05:35.350Z,4.10
2022-12-04T16:08:25.397Z,4.10
2022-12-04T16:11:33.075Z,4.10
2022-12-04T16:14:20.173Z,4.10
2022-12-04T16:17:10.529Z,4.30
2022-12-04T16:19:58.062Z,4.30
2022-12-04T16:22:45.720Z,4.50
2022-12-04T16:25:32.960Z,4.60
2022-12-04T16:28:20.001Z,4.60
2022-12-04T16:31:07.135Z,4.60
2022-12-04T16:33:55.546Z,4.60
2022-12-04T16:36:42.582Z,4.70
2022-12-04T16:39:29.486Z,4.80
2022-12-04T16:42:19.603Z,4.80
2022-12-04T16:45:23.235Z,4.80
2022-12-04T16:48:09.797Z,4.80
2022-12-04T16:50:57.334Z,4.80
2022-12-04T16:53:43.899Z,4.90
2022-12-04T16:56:30.472Z,4.90
2022-12-04T16:59:16.816Z,4.90
2022-12-04T17:02:05.300Z,4.90
2022-12-04T17:04:57.264Z,4.90
2022-12-04T17:07:46.302Z,4.90
2022-12-04T17:10:33.061Z,4.90
2022-12-04T17:13:20.011Z,4.90
2022-12-04T17:16:06.830Z,4.90
2022-12-04T17:18:53.730Z,4.90
2022-12-04T17:21:41.639Z,4.90
2022-12-04T17:24:29.615Z,4.90
2022-12-04T17:27:16.142Z,5.00
2022-12-04T17:30:02.641Z,5.00
2022-12-04T17:32:49.254Z,5.00
2022-12-04T17:35:35.854Z,5.00
2022-12-04T17:38:22.879Z,5.00
2022-12-04T17:41:13.679Z,5.00
2022-12-04T17:44:00.780Z,5.00
2022-12-04T17:46:47.243Z,5.00
2022-12-04T17:49:33.943Z,5.00
2022-12-04T17:52:22.375Z,5.00
2022-12-04T17:55:09.744Z,4.90
2022-12-04T17:57:57.842Z,4.90
2022-12-04T18:00:44.068Z,4.90
2022-12-04T18:03:30.980Z,4.90
2022-12-04T18:06:20.024Z,5.00
2022-12-04T18:09:08.042Z,5.00
2022-12-04T18:11:56.135Z,5.00
2022-12-04T18:14:44.041Z,5.00
2022-12-04T18:17:30.391Z,5.00
2022-12-04T18:20:16.841Z,5.00
2022-12-04T18:23:03.278Z,4.90
2022-12-04T18:25:56.011Z,5.00
2022-12-04T18:28:43.440Z,5.00
2022-12-04T18:31:31.837Z,5.00
2022-12-04T18:34:19.648Z,5.10
2022-12-04T18:37:06.020Z,5.10
2022-12-04T18:39:52.611Z,5.10
2022-12-04T18:42:39.221Z,5.10
2022-12-04T18:45:25.716Z,5.10
2022-12-04T18:48:16.297Z,5.10
2022-12-04T18:51:02.656Z,5.00
2022-12-04T18:53:50.112Z,5.00
2022-12-04T18:56:36.656Z,5.00
2022-12-04T18:59:25.543Z,5.00
2022-12-04T19:02:12.241Z,5.00
2022-12-04T19:05:00.334Z,5.00
2022-12-04T19:07:48.335Z,4.90
2022-12-04T19:10:35.404Z,4.80
2022-12-04T19:13:22.051Z,4.80
2022-12-04T19:16:12.299Z,4.80
2022-12-04T19:18:59.535Z,4.90
2022-12-04T19:21:47.612Z,4.90
2022-12-04T19:24:34.304Z,4.90
2022-12-04T19:27:20.729Z,4.90
2022-12-04T19:30:08.617Z,5.00
2022-12-04T19:32:55.484Z,5.00
2022-12-04T19:35:41.852Z,5.10
2022-12-04T19:38:30.612Z,5.00
2022-12-04T19:41:21.025Z,5.10
2022-12-04T19:44:26.348Z,5.10
2022-12-04T19:47:14.137Z,5.20
2022-12-04T19:50:00.564Z,5.10
2022-12-04T19:52:47.336Z,5.10
2022-12-04T19:55:36.790Z,5.10
2022-12-04T19:58:26.138Z,5.10
2022-12-04T20:01:15.788Z,5.10
2022-12-04T20:04:05.086Z,5.00
2022-12-04T20:06:51.839Z,4.90
2022-12-04T20:09:38.299Z,4.90
2022-12-04T20:12:26.036Z,4.90
2022-12-04T20:15:12.983Z,4.90
2022-12-04T20:17:59.366Z,5.00
2022-12-04T20:20:47.692Z,5.00
2022-12-04T20:23:34.476Z,4.90
2022-12-04T20:26:23.511Z,4.90
2022-12-04T20:29:14.284Z,4.80
2022-12-04T20:32:00.926Z,4.80
2022-12-04T20:34:47.566Z,4.80
2022-12-04T20:37:35.784Z,4.80
2022-12-04T20:40:22.429Z,4.90
2022-12-04T20:43:08.779Z,4.90
2022-12-04T20:45:56.651Z,5.00
2022-12-04T20:48:47.916Z,5.00
2022-12-04T20:51:35.804Z,5.00
2022-12-04T20:54:24.130Z,4.90
2022-12-04T20:57:10.791Z,4.90
2022-12-04T20:59:57.804Z,4.80
2022-12-04T21:02:45.883Z,4.80
2022-12-04T21:05:32.607Z,4.80
2022-12-04T21:08:39.455Z,4.80
2022-12-04T21:11:28.893Z,4.90
2022-12-04T21:14:35.321Z,4.80
2022-12-04T21:17:22.270Z,4.80
2022-12-04T21:20:11.857Z,4.90
2022-12-04T21:22:58.544Z,4.90
2022-12-04T21:25:45.002Z,5.00
2022-12-04T21:28:31.893Z,5.00
2022-12-04T21:31:18.278Z,5.00
2022-12-04T21:34:07.763Z,5.00
2022-12-04T21:36:55.947Z,5.10
2022-12-04T21:39:44.049Z,5.20
2022-12-04T21:42:34.419Z,5.20
2022-12-04T21:45:20.864Z,5.20
2022-12-04T21:48:07.439Z,5.20
2022-12-04T21:50:54.015Z,5.20
2022-12-04T21:53:42.701Z,5.20
2022-12-04T21:56:30.138Z,5.20
2022-12-04T21:59:16.450Z,5.20
2022-12-04T22:02:03.464Z,5.10
2022-12-04T22:04:50.489Z,5.10
2022-12-04T22:07:37.240Z,5.00
2022-12-04T22:10:25.383Z,5.00
2022-12-04T22:13:12.226Z,4.90
2022-12-04T22:16:03.830Z,5.00
2022-12-04T22:18:54.232Z,4.90
2022-12-04T22:21:41.096Z,5.00
2022-12-04T22:24:27.619Z,5.00
2022-12-04T22:27:16.084Z,5.10
2022-12-04T22:30:02.911Z,5.10
2022-12-04T22:32:49.592Z,5.20
2022-12-04T22:35:35.993Z,5.20
2022-12-04T22:38:22.485Z,5.20
2022-12-04T22:41:11.103Z,5.10
2022-12-04T22:43:59.085Z,5.20
2022-12-04T22:46:45.726Z,5.20
2022-12-04T22:49:32.576Z,5.10
2022-12-04T22:52:19.125Z,5.10
2022-12-04T22:55:06.469Z,5.10
2022-12-04T22:57:52.948Z,5.00
2022-12-04T23:00:40.789Z,5.00
2022-12-04T23:03:27.647Z,5.00
2022-12-04T23:06:15.567Z,5.00
2022-12-04T23:09:04.795Z,5.10
2022-12-04T23:11:52.576Z,5.10
2022-12-04T23:14:39.199Z,5.20
2022-12-04T23:17:26.959Z,5.20
2022-12-04T23:20:13.730Z,5.20
2022-12-04T23:23:00.373Z,5.10
2022-12-04T23:25:46.823Z,5.20
2022-12-04T23:28:33.943Z,5.20
2022-12-04T23:31:20.864Z,5.10
2022-12-04T23:34:09.295Z,5.20
2022-12-04T23:36:55.636Z,5.20
2022-12-04T23:39:42.070Z,5.30
2022-12-04T23:42:32.067Z,5.30
2022-12-04T23:45:18.840Z,5.20
2022-12-04T23:48:05.974Z,5.20
2022-12-04T23:50:54.270Z,5.30
2022-12-04T23:53:41.673Z,5.20
2022-12-04T23:56:29.202Z,5.30
2022-12-04T23:59:15.545Z,5.30
